createdAt,value
2023-03-17T00:00:24.200Z,982.9
2023-03-17T00:02:25.886Z,982.8
2023-03-17T00:04:27.110Z,982.8
2023-03-17T00:06:28.416Z,982.7
2023-03-17T00:08:29.579Z,982.7
2023-03-17T00:10:31.854Z,982.8
2023-03-17T00:12:32.571Z,982.8
2023-03-17T00:14:34.168Z,982.8
2023-03-17T00:16:35.930Z,982.7
2023-03-17T00:18:37.796Z,982.9
2023-03-17T00:20:39.630Z,982.9
2023-03-17T00:22:41.314Z,982.9
2023-03-17T00:24:43.193Z,982.9
2023-03-17T00:26:44.516Z,982.8
2023-03-17T00:28:45.542Z,982.8
2023-03-17T00:30:47.553Z,982.8
2023-03-17T00:32:48.622Z,982.8
2023-03-17T00:34:50.485Z,982.7
2023-03-17T00:36:51.772Z,982.7
2023-03-17T00:38:53.017Z,982.7
2023-03-17T00:40:54.225Z,982.6
2023-03-17T00:44:56.932Z,982.6
2023-03-17T00:46:58.033Z,982.5
2023-03-17T00:48:59.555Z,982.6
2023-03-17T00:51:01.458Z,982.5
2023-03-17T00:53:02.426Z,982.5
2023-03-17T00:55:04.348Z,982.4
2023-03-17T00:57:05.990Z,982.5
2023-03-17T00:59:07.502Z,982.5
2023-03-17T01:01:09.086Z,982.4
2023-03-17T01:03:10.085Z,982.5
2023-03-17T01:07:13.186Z,982.4
2023-03-17T01:09:14.738Z,982.4
2023-03-17T01:11:16.548Z,982.4
2023-03-17T01:13:17.307Z,982.4
2023-03-17T01:15:18.750Z,982.5
2023-03-17T01:17:20.079Z,982.6
2023-03-17T01:19:21.660Z,982.5
2023-03-17T01:21:22.899Z,982.5
2023-03-17T01:23:23.932Z,982.4
2023-03-17T01:25:25.481Z,982.3
2023-03-17T01:28:10.478Z,982.2
2023-03-17T01:30:11.971Z,982.2
2023-03-17T01:32:13.673Z,982.3
2023-03-17T01:34:15.233Z,982.2
2023-03-17T01:36:16.793Z,982.2
2023-03-17T01:38:18.127Z,982.2
2023-03-17T01:40:20.086Z,982.2
2023-03-17T01:42:21.121Z,982.1
2023-03-17T01:44:22.690Z,982.2
2023-03-17T01:46:24.399Z,982.1
2023-03-17T01:48:25.483Z,982.1
2023-03-17T01:50:27.367Z,982.1
2023-03-17T01:52:28.964Z,982.1
2023-03-17T01:54:30.200Z,982
2023-03-17T01:56:32.151Z,982.1
2023-03-17T01:58:34.012Z,982.1
2023-03-17T02:00:35.689Z,982
2023-03-17T02:02:37.565Z,982.1
2023-03-17T02:04:39.022Z,982
2023-03-17T02:06:51.120Z,982
2023-03-17T02:10:42.673Z,982
2023-03-17T02:12:44.490Z,982
2023-03-17T02:14:45.540Z,982
2023-03-17T02:16:46.912Z,982
2023-03-17T02:20:49.481Z,981.7
2023-03-17T02:22:50.772Z,981.8
2023-03-17T02:24:51.793Z,981.8
2023-03-17T02:26:53.214Z,981.8
2023-03-17T02:28:54.500Z,981.7
2023-03-17T02:30:56.300Z,981.7
2023-03-17T02:32:57.717Z,981.7
2023-03-17T02:34:59.264Z,981.7
2023-03-17T02:37:00.924Z,981.7
2023-03-17T02:39:02.046Z,981.7
2023-03-17T02:41:03.729Z,981.7
2023-03-17T02:43:04.808Z,981.7
2023-03-17T02:45:06.299Z,981.6
2023-03-17T02:47:07.633Z,981.5
2023-03-17T02:49:09.053Z,981.6
2023-03-17T02:51:10.977Z,981.6
2023-03-17T02:53:12.871Z,981.5
2023-03-17T02:55:14.155Z,981.6
2023-03-17T02:57:15.803Z,981.5
2023-03-17T02:59:17.304Z,981.6
2023-03-17T03:01:18.447Z,981.6
2023-03-17T03:03:19.683Z,981.5
2023-03-17T03:05:21.209Z,981.5
2023-03-17T03:07:23.111Z,981.5
2023-03-17T03:09:24.987Z,981.6
2023-03-17T03:11:25.976Z,981.5
2023-03-17T03:13:27.133Z,981.5
2023-03-17T03:15:28.496Z,981.5
2023-03-17T03:17:29.951Z,981.4
2023-03-17T03:19:31.219Z,981.4
2023-03-17T03:21:32.392Z,981.3
2023-03-17T03:25:34.923Z,981.3
2023-03-17T03:27:36.500Z,981.4
2023-03-17T03:29:37.533Z,981.4
2023-03-17T03:31:38.663Z,981.3
2023-03-17T03:33:40.278Z,981.3
2023-03-17T03:35:41.867Z,981.4
2023-03-17T03:37:43.679Z,981.4
2023-03-17T03:39:45.500Z,981.3
2023-03-17T03:41:47.378Z,981.3
2023-03-17T03:43:48.865Z,981.3
2023-03-17T03:45:50.500Z,981.3
2023-03-17T03:47:52.321Z,981.2
2023-03-17T03:49:53.698Z,981.3
2023-03-17T03:51:55.010Z,981.4
2023-03-17T03:53:56.884Z,981.5
2023-03-17T03:55:58.106Z,981.4
2023-03-17T03:57:59.125Z,981.4
2023-03-17T04:00:00.282Z,981.4
2023-03-17T04:02:01.475Z,981.3
2023-03-17T04:04:03.140Z,981.3
2023-03-17T04:06:04.980Z,981.4
2023-03-17T04:08:06.549Z,981.4
2023-03-17T04:10:08.520Z,981.4
2023-03-17T04:12:10.444Z,981.3
2023-03-17T04:14:11.917Z,981.4
2023-03-17T04:16:13.694Z,981.4
2023-03-17T04:18:14.718Z,981.4
2023-03-17T04:20:15.823Z,981.4
2023-03-17T04:22:17.082Z,981.4
2023-03-17T04:24:18.474Z,981.3
2023-03-17T04:26:19.706Z,981.4
2023-03-17T04:28:21.163Z,981.4
2023-03-17T04:30:22.203Z,981.3
2023-03-17T04:34:24.980Z,981.3
2023-03-17T04:36:26.836Z,981.4
2023-03-17T04:38:28.022Z,981.3
2023-03-17T04:40:29.832Z,981.3
2023-03-17T04:44:32.529Z,981.4
2023-03-17T04:46:34.492Z,981.3
2023-03-17T04:48:35.589Z,981.3
2023-03-17T04:50:36.738Z,981.4
2023-03-17T04:52:38.290Z,981.3
2023-03-17T04:54:39.689Z,981.4
2023-03-17T04:56:40.748Z,981.5
2023-03-17T04:58:42.455Z,981.5
2023-03-17T05:00:43.844Z,981.5
2023-03-17T05:02:44.906Z,981.3
2023-03-17T05:04:45.984Z,981.3
2023-03-17T05:06:47.957Z,981.2
2023-03-17T05:08:49.082Z,981.3
2023-03-17T05:10:50.424Z,981.2
2023-03-17T05:12:51.895Z,981.3
2023-03-17T05:14:53.584Z,981.4
2023-03-17T05:16:55.275Z,981.4
2023-03-17T05:18:57.107Z,981.4
2023-03-17T05:20:58.400Z,981.2
2023-03-17T05:23:00.052Z,981.3
2023-03-17T05:25:01.771Z,981.3
2023-03-17T05:27:02.943Z,981.2
2023-03-17T05:29:04.418Z,981.3
2023-03-17T05:31:05.627Z,981.2
2023-03-17T05:33:06.744Z,981.3
2023-03-17T05:35:08.437Z,981.2
2023-03-17T05:37:09.785Z,981.1
2023-03-17T05:39:13.382Z,981.2
2023-03-17T05:41:12.446Z,981.3
2023-03-17T05:43:13.826Z,981.2
2023-03-17T05:45:15.408Z,981.3
2023-03-17T05:49:18.492Z,981.3
2023-03-17T05:51:19.697Z,981.3
2023-03-17T05:53:21.156Z,981.2
2023-03-17T05:55:22.871Z,981.3
2023-03-17T05:57:24.480Z,981.4
2023-03-17T05:59:26.032Z,981.5
2023-03-17T06:01:27.407Z,981.3
2023-03-17T06:03:28.543Z,981.4
2023-03-17T06:05:29.661Z,981.4
2023-03-17T06:07:41.096Z,981.3
2023-03-17T06:09:32.587Z,981.4
2023-03-17T06:11:33.835Z,981.5
2023-03-17T06:13:35.083Z,981.5
2023-03-17T06:15:36.733Z,981.5
2023-03-17T06:17:38.264Z,981.4
2023-03-17T06:19:39.445Z,981.5
2023-03-17T06:21:40.601Z,981.4
2023-03-17T06:23:42.055Z,981.4
2023-03-17T06:25:43.764Z,981.4
2023-03-17T06:27:45.619Z,981.4
2023-03-17T06:31:49.137Z,981.4
2023-03-17T06:33:50.123Z,981.5
2023-03-17T06:35:51.562Z,981.4
2023-03-17T06:37:52.800Z,981.4
2023-03-17T06:39:54.436Z,981.2
2023-03-17T06:41:55.880Z,981.4
2023-03-17T06:43:57.673Z,981.2
2023-03-17T06:45:59.555Z,981.3
2023-03-17T06:48:00.715Z,981.3
2023-03-17T06:50:01.976Z,981.4
2023-03-17T06:52:03.005Z,981.3
2023-03-17T06:54:04.850Z,981.2
2023-03-17T06:58:08.413Z,981.2
2023-03-17T07:00:09.813Z,981.3
2023-03-17T07:02:11.577Z,981.4
2023-03-17T07:04:13.337Z,981.4
2023-03-17T07:06:14.855Z,981.4
2023-03-17T07:08:16.241Z,981.4
2023-03-17T07:10:17.667Z,981.5
2023-03-17T07:12:19.112Z,981.4
2023-03-17T07:14:20.933Z,981.3
2023-03-17T07:16:22.378Z,981.3
2023-03-17T07:18:24.184Z,981.3
2023-03-17T07:20:25.587Z,981.2
2023-03-17T07:22:27.447Z,981.4
2023-03-17T07:24:28.538Z,981.2
2023-03-17T07:26:38.397Z,981.3
2023-03-17T07:28:31.973Z,981.3
2023-03-17T07:30:33.164Z,981.3
2023-03-17T07:32:34.666Z,981.2
2023-03-17T07:34:35.841Z,981.2
2023-03-17T07:36:37.716Z,981.2
2023-03-17T07:40:40.160Z,981.2
2023-03-17T07:42:42.402Z,981.2
2023-03-17T07:44:43.557Z,981.2
2023-03-17T07:46:45.367Z,981.2
2023-03-17T07:50:48.561Z,981.1
2023-03-17T07:52:49.668Z,981.2
2023-03-17T07:54:51.375Z,981.1
2023-03-17T07:56:52.660Z,981.2
2023-03-17T07:58:53.977Z,981.1
2023-03-17T08:00:55.583Z,981.1
2023-03-17T08:03:09.192Z,981
2023-03-17T08:04:57.890Z,981
2023-03-17T08:06:59.736Z,981
2023-03-17T08:09:00.604Z,981.1
2023-03-17T08:11:02.353Z,980.9
2023-03-17T08:13:47.861Z,980.9
2023-03-17T08:15:49.363Z,980.9
2023-03-17T08:17:50.360Z,980.8
2023-03-17T08:19:51.161Z,980.9
2023-03-17T08:21:52.583Z,981
2023-03-17T08:23:53.807Z,980.9
2023-03-17T08:25:55.234Z,980.9
2023-03-17T08:27:56.220Z,980.9
2023-03-17T08:29:57.027Z,980.9
2023-03-17T08:31:58.005Z,980.9
2023-03-17T08:33:58.956Z,980.9
2023-03-17T08:36:00.304Z,980.8
2023-03-17T08:38:01.196Z,980.8
2023-03-17T08:40:02.678Z,980.9
2023-03-17T08:42:03.841Z,980.9
2023-03-17T08:44:05.279Z,980.9
2023-03-17T08:46:06.915Z,980.9
2023-03-17T08:50:09.262Z,980.9
2023-03-17T08:52:10.632Z,980.9
2023-03-17T08:54:11.577Z,981
2023-03-17T08:56:14.162Z,980.9
2023-03-17T08:58:15.883Z,980.9
2023-03-17T09:00:17.412Z,980.8
2023-03-17T09:02:19.003Z,980.9
2023-03-17T09:04:20.742Z,980.9
2023-03-17T09:06:21.701Z,980.8
2023-03-17T09:08:22.853Z,980.9
2023-03-17T09:10:25.319Z,980.9
2023-03-17T09:12:26.582Z,980.9
2023-03-17T09:14:28.335Z,980.8
2023-03-17T09:16:30.230Z,980.8
2023-03-17T09:18:31.980Z,980.8
2023-03-17T09:20:33.454Z,980.7
2023-03-17T09:22:34.356Z,980.8
2023-03-17T09:24:35.989Z,980.9
2023-03-17T09:26:37.650Z,980.8
2023-03-17T09:28:38.523Z,980.8
2023-03-17T09:30:39.763Z,980.8
2023-03-17T09:32:42.160Z,980.7
2023-03-17T09:34:43.493Z,980.7
2023-03-17T09:36:44.667Z,980.7
2023-03-17T09:38:46.207Z,980.7
2023-03-17T09:40:47.138Z,980.7
2023-03-17T09:42:47.940Z,980.6
2023-03-17T09:44:49.082Z,980.6
2023-03-17T09:46:50.914Z,980.7
2023-03-17T09:48:52.177Z,980.8
2023-03-17T09:50:53.697Z,980.7
2023-03-17T09:52:55.022Z,980.7
2023-03-17T09:54:56.250Z,980.8
2023-03-17T09:58:59.256Z,980.7
2023-03-17T10:01:00.268Z,980.7
2023-03-17T10:03:01.468Z,980.6
2023-03-17T10:05:02.772Z,980.5
2023-03-17T10:09:06.478Z,980.5
2023-03-17T10:11:08.183Z,980.5
2023-03-17T10:13:09.328Z,980.5
2023-03-17T10:15:11.710Z,980.5
2023-03-17T10:17:12.965Z,980.5
2023-03-17T10:19:13.995Z,980.5
2023-03-17T10:21:15.247Z,980.4
2023-03-17T10:23:16.579Z,980.4
2023-03-17T10:25:17.474Z,980.4
2023-03-17T10:27:18.699Z,980.5
2023-03-17T10:29:20.464Z,980.3
2023-03-17T10:31:22.021Z,980.3
2023-03-17T10:33:23.551Z,980.4
2023-03-17T10:35:25.042Z,980.3
2023-03-17T10:37:26.005Z,980.3
2023-03-17T10:39:27.223Z,980.2
2023-03-17T10:41:28.835Z,980.2
2023-03-17T10:43:29.873Z,980.1
2023-03-17T10:45:30.674Z,980.1
2023-03-17T10:47:31.960Z,980.1
2023-03-17T10:49:33.439Z,980.1
2023-03-17T10:51:34.267Z,980.2
2023-03-17T10:53:35.579Z,980.1
2023-03-17T10:55:36.815Z,980.2
2023-03-17T10:57:38.041Z,980.3
2023-03-17T10:59:41.074Z,980
2023-03-17T11:01:41.326Z,980
2023-03-17T11:03:42.918Z,980
2023-03-17T11:05:44.336Z,980
2023-03-17T11:07:45.074Z,980
2023-03-17T11:09:46.469Z,980
2023-03-17T11:13:48.677Z,979.9
2023-03-17T11:15:49.808Z,979.9
2023-03-17T11:17:51.007Z,980
2023-03-17T11:19:52.073Z,979.9
2023-03-17T11:21:53.178Z,979.9
2023-03-17T11:23:54.405Z,979.9
2023-03-17T11:25:56.576Z,979.9
2023-03-17T11:27:58.023Z,979.9
2023-03-17T11:29:59.529Z,979.9
2023-03-17T11:32:01.313Z,979.9
2023-03-17T11:34:02.311Z,979.9
2023-03-17T11:36:04.052Z,979.8
2023-03-17T11:38:05.333Z,979.8
2023-03-17T11:40:06.287Z,979.8
2023-03-17T11:42:07.826Z,979.8
2023-03-17T11:44:09.269Z,979.7
2023-03-17T11:46:11.042Z,979.7
2023-03-17T11:48:11.958Z,979.7
2023-03-17T11:50:13.424Z,979.7
2023-03-17T11:52:15.145Z,979.6
2023-03-17T11:54:16.013Z,979.7
2023-03-17T11:56:17.050Z,979.7
2023-03-17T11:58:18.423Z,979.7
2023-03-17T12:00:19.467Z,979.7
2023-03-17T12:02:20.610Z,979.6
2023-03-17T12:04:22.085Z,979.6
2023-03-17T12:06:23.725Z,979.6
2023-03-17T12:08:25.026Z,979.6
2023-03-17T12:10:25.881Z,979.5
2023-03-17T12:12:27.600Z,979.5
2023-03-17T12:14:29.047Z,979.5
2023-03-17T12:16:30.581Z,979.5
2023-03-17T12:18:31.604Z,979.6
2023-03-17T12:20:32.929Z,979.5
2023-03-17T12:22:34.477Z,979.6
2023-03-17T12:24:35.272Z,979.5
2023-03-17T12:26:36.492Z,979.5
2023-03-17T12:28:47.329Z,979.5
2023-03-17T12:30:38.259Z,979.5
2023-03-17T12:32:39.514Z,979.5
2023-03-17T12:34:40.912Z,979.5
2023-03-17T12:38:44.207Z,979.4
2023-03-17T12:40:45.266Z,979.3
2023-03-17T12:42:46.348Z,979.4
2023-03-17T12:44:47.474Z,979.3
2023-03-17T12:46:48.686Z,979.4
2023-03-17T12:48:49.552Z,979.4
2023-03-17T12:50:50.775Z,979.2
2023-03-17T12:54:53.224Z,979.3
2023-03-17T12:56:55.037Z,979.3
2023-03-17T12:58:56.417Z,979.2
2023-03-17T13:00:57.250Z,979.2
2023-03-17T13:02:58.453Z,979.2
2023-03-17T13:05:00.092Z,979.1
2023-03-17T13:07:01.128Z,979.1
2023-03-17T13:09:02.912Z,979.2
2023-03-17T13:11:04.001Z,979.2
2023-03-17T13:13:05.604Z,979.1
2023-03-17T13:15:07.044Z,979
2023-03-17T13:17:08.442Z,979.1
2023-03-17T13:19:09.874Z,979
2023-03-17T13:21:11.783Z,979
2023-03-17T13:23:12.851Z,979
2023-03-17T13:25:14.456Z,979
2023-03-17T13:27:16.084Z,979
2023-03-17T13:29:17.189Z,979
2023-03-17T13:31:18.613Z,979
2023-03-17T13:33:19.815Z,978.9
2023-03-17T13:35:21.032Z,978.9
2023-03-17T13:37:22.393Z,978.9
2023-03-17T13:39:24.899Z,978.8
2023-03-17T13:41:24.665Z,978.8
2023-03-17T13:43:25.474Z,978.8
2023-03-17T13:45:26.723Z,978.8
2023-03-17T13:47:27.869Z,978.8
2023-03-17T13:49:29.587Z,978.7
2023-03-17T13:51:30.452Z,978.7
2023-03-17T13:53:31.490Z,978.7
2023-03-17T13:55:32.587Z,978.6
2023-03-17T13:57:33.662Z,978.6
2023-03-17T13:59:34.790Z,978.6
2023-03-17T14:01:35.746Z,978.5
2023-03-17T14:03:37.163Z,978.6
2023-03-17T14:05:38.637Z,978.6
2023-03-17T14:07:40.403Z,978.6
2023-03-17T14:09:41.834Z,978.6
2023-03-17T14:11:43.387Z,978.5
2023-03-17T14:13:44.771Z,978.5
2023-03-17T14:15:45.918Z,978.5
2023-03-17T14:19:48.184Z,978.5
2023-03-17T14:21:49.330Z,978.4
2023-03-17T14:23:50.176Z,978.5
2023-03-17T14:25:51.325Z,978.5
2023-03-17T14:27:52.785Z,978.5
2023-03-17T14:29:54.430Z,978.5
2023-03-17T14:31:55.380Z,978.4
2023-03-17T14:33:56.541Z,978.4
2023-03-17T14:35:57.937Z,978.4
2023-03-17T14:37:59.083Z,978.4
2023-03-17T14:40:00.462Z,978.4
2023-03-17T14:42:01.813Z,978.4
2023-03-17T14:44:03.235Z,978.4
2023-03-17T14:46:04.391Z,978.3
2023-03-17T14:48:05.170Z,978.2
2023-03-17T14:50:06.029Z,978.2
2023-03-17T14:52:07.699Z,978.2
2023-03-17T14:54:08.998Z,978.2
2023-03-17T14:56:10.525Z,978.1
2023-03-17T14:56:54.301Z,978.2
2023-03-17T14:58:55.394Z,978.1
2023-03-17T15:00:56.342Z,978.2
2023-03-17T15:02:57.272Z,978.1
2023-03-17T15:04:58.453Z,978.2
2023-03-17T15:06:59.424Z,978.1
2023-03-17T15:09:00.632Z,978.1
2023-03-17T15:11:02.252Z,978
2023-03-17T15:13:03.952Z,978
2023-03-17T15:15:05.664Z,978
2023-03-17T15:17:07.519Z,978
2023-03-17T15:19:09.013Z,977.9
2023-03-17T15:21:10.728Z,978
2023-03-17T15:23:12.521Z,978
2023-03-17T15:25:14.269Z,978
2023-03-17T15:27:23.477Z,977.9
2023-03-17T15:29:17.219Z,978
2023-03-17T15:31:18.999Z,978
2023-03-17T15:33:20.347Z,978
2023-03-17T15:35:22.100Z,978
2023-03-17T15:39:25.577Z,978
2023-03-17T15:41:27.002Z,978
2023-03-17T15:43:28.685Z,978
2023-03-17T15:45:30.433Z,978
2023-03-17T15:47:31.845Z,978
2023-03-17T15:49:33.348Z,978
2023-03-17T15:51:34.772Z,978
2023-03-17T15:53:36.177Z,978
2023-03-17T15:55:37.233Z,978
2023-03-17T15:57:38.262Z,978
2023-03-17T15:59:39.368Z,978
2023-03-17T16:01:40.753Z,977.9
2023-03-17T16:03:41.995Z,978
2023-03-17T16:05:43.194Z,978
2023-03-17T16:07:44.403Z,978
2023-03-17T16:09:45.945Z,977.9
2023-03-17T16:11:47.735Z,977.9
2023-03-17T16:13:49.557Z,977.8
2023-03-17T16:15:51.011Z,977.9
2023-03-17T16:17:52.285Z,977.8
2023-03-17T16:19:53.976Z,977.8
2023-03-17T16:21:55.617Z,977.8
2023-03-17T16:23:56.743Z,977.8
2023-03-17T16:26:08.152Z,977.7
2023-03-17T16:27:59.436Z,977.7
2023-03-17T16:32:02.859Z,977.6
2023-03-17T16:34:03.886Z,977.7
2023-03-17T16:38:06.882Z,977.7
2023-03-17T16:40:07.760Z,977.7
2023-03-17T16:42:09.191Z,977.7
2023-03-17T16:44:10.173Z,977.7
2023-03-17T16:46:11.174Z,977.6
2023-03-17T16:48:12.284Z,977.7
2023-03-17T16:50:13.215Z,977.6
2023-03-17T16:52:14.652Z,977.7
2023-03-17T16:54:16.475Z,977.7
2023-03-17T16:56:17.809Z,977.8
2023-03-17T16:58:18.856Z,977.8
2023-03-17T17:00:20.483Z,977.8
2023-03-17T17:02:22.300Z,977.9
2023-03-17T17:04:23.578Z,977.9
2023-03-17T17:06:25.030Z,977.8
2023-03-17T17:08:26.753Z,977.8
2023-03-17T17:10:28.206Z,977.8
2023-03-17T17:12:29.242Z,977.9
2023-03-17T17:14:30.677Z,977.9
2023-03-17T17:16:32.303Z,977.9
2023-03-17T17:18:35.423Z,977.9
2023-03-17T17:20:34.996Z,977.9
2023-03-17T17:22:36.400Z,977.8
2023-03-17T17:24:37.614Z,977.9
2023-03-17T17:26:38.843Z,977.9
2023-03-17T17:28:40.225Z,977.8
2023-03-17T17:30:41.166Z,977.9
2023-03-17T17:32:42.521Z,977.8
2023-03-17T17:36:44.575Z,977.9
2023-03-17T17:38:45.920Z,977.9
2023-03-17T17:40:47.073Z,977.9
2023-03-17T17:42:48.077Z,977.9
2023-03-17T17:44:49.298Z,977.9
2023-03-17T17:46:50.329Z,977.9
2023-03-17T17:48:51.342Z,977.9
2023-03-17T17:52:53.845Z,977.9
2023-03-17T17:54:55.284Z,978
2023-03-17T17:56:56.729Z,978
2023-03-17T17:58:58.422Z,978
2023-03-17T18:03:01.547Z,978.1
2023-03-17T18:05:02.538Z,978.1
2023-03-17T18:07:03.769Z,978.1
2023-03-17T18:09:04.708Z,978.2
2023-03-17T18:11:06.073Z,978.2
2023-03-17T18:13:07.183Z,978.2
2023-03-17T18:15:09.001Z,978.2
2023-03-17T18:19:11.784Z,978.2
2023-03-17T18:21:12.942Z,978.1
2023-03-17T18:23:14.520Z,978.2
2023-03-17T18:25:16.124Z,978.2
2023-03-17T18:27:17.620Z,978.3
2023-03-17T18:29:18.576Z,978.4
2023-03-17T18:31:20.533Z,978.3
2023-03-17T18:33:22.013Z,978.4
2023-03-17T18:35:23.565Z,978.4
2023-03-17T18:37:24.626Z,978.4
2023-03-17T18:39:25.661Z,978.3
2023-03-17T18:41:27.414Z,978.3
2023-03-17T18:43:28.953Z,978.3
2023-03-17T18:45:30.145Z,978.3
2023-03-17T18:47:31.085Z,978.5
2023-03-17T18:49:32.476Z,978.5
2023-03-17T18:51:34.346Z,978.5
2023-03-17T18:53:35.607Z,978.5
2023-03-17T18:55:37.326Z,978.6
2023-03-17T18:57:38.496Z,978.5
2023-03-17T18:59:40.159Z,978.6
2023-03-17T19:01:41.274Z,978.5
2023-03-17T19:03:43.083Z,978.5
2023-03-17T19:07:45.360Z,978.6
2023-03-17T19:09:46.350Z,978.5
2023-03-17T19:11:47.564Z,978.6
2023-03-17T19:13:49.289Z,978.5
2023-03-17T19:15:50.918Z,978.6
2023-03-17T19:17:52.361Z,978.5
2023-03-17T19:19:53.466Z,978.5
2023-03-17T19:21:55.268Z,978.7
2023-03-17T19:23:56.791Z,978.7
2023-03-17T19:25:58.243Z,978.6
2023-03-17T19:28:00.051Z,978.6
2023-03-17T19:30:01.212Z,978.5
2023-03-17T19:34:04.119Z,978.6
2023-03-17T19:36:05.500Z,978.6
2023-03-17T19:38:06.837Z,978.7
2023-03-17T19:40:08.701Z,978.7
2023-03-17T19:42:09.935Z,978.7
2023-03-17T19:44:11.081Z,978.7
2023-03-17T19:46:13.033Z,978.7
2023-03-17T19:48:14.329Z,978.8
2023-03-17T19:50:15.835Z,978.7
2023-03-17T19:52:17.574Z,978.8
2023-03-17T19:54:19.182Z,978.7
2023-03-17T19:56:20.789Z,978.7
2023-03-17T19:58:22.261Z,978.7
2023-03-17T20:00:23.472Z,978.6
2023-03-17T20:02:24.408Z,978.6
2023-03-17T20:04:26.186Z,978.6
2023-03-17T20:06:27.237Z,978.7
2023-03-17T20:08:28.384Z,978.7
2023-03-17T20:10:30.458Z,978.7
2023-03-17T20:12:40.342Z,978.6
2023-03-17T20:16:34.240Z,978.7
2023-03-17T20:18:36.097Z,978.6
2023-03-17T20:20:37.780Z,978.6
2023-03-17T20:22:38.999Z,978.7
2023-03-17T20:26:41.824Z,978.6
2023-03-17T20:28:42.868Z,978.6
2023-03-17T20:32:46.054Z,978.7
2023-03-17T20:34:47.307Z,978.8
2023-03-17T20:36:48.423Z,978.8
2023-03-17T20:38:50.163Z,978.8
2023-03-17T20:40:51.646Z,978.8
2023-03-17T20:42:53.075Z,978.8
2023-03-17T20:44:54.455Z,978.7
2023-03-17T20:46:56.246Z,978.7
2023-03-17T20:48:57.812Z,978.7
2023-03-17T20:50:58.809Z,978.8
2023-03-17T20:53:00.725Z,978.8
2023-03-17T20:55:02.060Z,978.7
2023-03-17T20:57:03.897Z,978.7
2023-03-17T20:59:05.198Z,978.7
2023-03-17T21:01:06.247Z,978.8
2023-03-17T21:03:07.780Z,978.7
2023-03-17T21:05:09.554Z,978.9
2023-03-17T21:07:11.181Z,978.8
2023-03-17T21:09:13.102Z,978.9
2023-03-17T21:11:14.318Z,979
2023-03-17T21:13:15.277Z,979
2023-03-17T21:15:16.653Z,978.9
2023-03-17T21:17:17.598Z,979
2023-03-17T21:19:19.189Z,979.1
2023-03-17T21:21:20.995Z,979.1
2023-03-17T21:23:22.889Z,979.2
2023-03-17T21:25:24.009Z,979.1
2023-03-17T21:27:25.362Z,979.2
2023-03-17T21:29:27.276Z,979.1
2023-03-17T21:31:28.971Z,979.1
2023-03-17T21:33:30.473Z,979.1
2023-03-17T21:35:31.935Z,979.1
2023-03-17T21:37:33.766Z,979
2023-03-17T21:39:35.429Z,979.1
2023-03-17T21:41:37.177Z,979.2
2023-03-17T21:42:20.972Z,979.1
2023-03-17T21:44:22.131Z,979.2
2023-03-17T21:46:23.615Z,979.1
2023-03-17T21:48:25.301Z,979.1
2023-03-17T21:50:26.956Z,979.2
2023-03-17T21:52:28.160Z,979.2
2023-03-17T21:54:29.305Z,979.2
2023-03-17T21:56:30.888Z,979.2
2023-03-17T21:58:32.282Z,979.2
2023-03-17T22:00:44.602Z,979.2
2023-03-17T22:02:35.666Z,979.2
2023-03-17T22:04:36.850Z,979.1
2023-03-17T22:08:39.868Z,979.2
2023-03-17T22:10:41.252Z,979.2
2023-03-17T22:12:43.109Z,979.2
2023-03-17T22:14:44.691Z,979.3
2023-03-17T22:16:46.031Z,979.3
2023-03-17T22:18:47.613Z,979.3
2023-03-17T22:20:49.247Z,979.3
2023-03-17T22:22:50.542Z,979.3
2023-03-17T22:24:51.741Z,979.2
2023-03-17T22:26:52.973Z,979.4
2023-03-17T22:28:54.892Z,979.4
2023-03-17T22:30:56.541Z,979.4
2023-03-17T22:32:58.150Z,979.5
2023-03-17T22:34:59.111Z,979.4
2023-03-17T22:37:00.728Z,979.5
2023-03-17T22:39:02.552Z,979.5
2023-03-17T22:41:04.481Z,979.6
2023-03-17T22:43:05.569Z,979.5
2023-03-17T22:45:06.655Z,979.7
2023-03-17T22:47:08.073Z,979.7
2023-03-17T22:49:10.074Z,979.5
2023-03-17T22:51:11.316Z,979.5
2023-03-17T22:53:12.414Z,979.5
2023-03-17T22:55:13.619Z,979.5
2023-03-17T22:57:15.295Z,979.6
2023-03-17T22:59:16.613Z,979.5
2023-03-17T23:01:18.570Z,979.5
2023-03-17T23:03:20.112Z,979.6
2023-03-17T23:05:21.066Z,979.5
2023-03-17T23:07:22.780Z,979.7
2023-03-17T23:09:24.164Z,979.8
2023-03-17T23:11:25.510Z,979.8
2023-03-17T23:13:26.782Z,979.7
2023-03-17T23:17:30.123Z,979.8
2023-03-17T23:19:31.633Z,979.8
2023-03-17T23:21:33.214Z,979.8
2023-03-17T23:23:35.073Z,979.8
2023-03-17T23:27:37.766Z,979.7
2023-03-17T23:29:39.627Z,979.8
2023-03-17T23:31:40.909Z,979.8
2023-03-17T23:33:42.202Z,979.7
2023-03-17T23:35:44.193Z,979.7
2023-03-17T23:37:45.136Z,979.8
2023-03-17T23:39:47.021Z,979.9
2023-03-17T23:41:48.636Z,979.8
2023-03-17T23:43:50.082Z,979.9
2023-03-17T23:45:51.717Z,979.9
2023-03-17T23:47:52.615Z,979.9
2023-03-17T23:49:54.448Z,979.9
2023-03-17T23:51:55.832Z,979.9
2023-03-17T23:53:57.378Z,979.9
2023-03-17T23:55:59.029Z,979.9
2023-03-17T23:58:00.523Z,979.9
